sensor_id;sensor_type;location;lat;lon;timestamp;pressure;altitude;pressure_sealevel;temperature
79756;BMP280;69239;50.678;12.280;2023-05-07T00:01:28;97847.44;;;12.50
79756;BMP280;69239;50.678;12.280;2023-05-07T00:03:53;97850.06;;;12.50
79756;BMP280;69239;50.678;12.280;2023-05-07T00:06:18;97852.28;;;12.48
79756;BMP280;69239;50.678;12.280;2023-05-07T00:08:44;97848.53;;;12.49
79756;BMP280;69239;50.678;12.280;2023-05-07T00:11:10;97852.44;;;12.43
79756;BMP280;69239;50.678;12.280;2023-05-07T00:13:35;97842.50;;;12.40
79756;BMP280;69239;50.678;12.280;2023-05-07T00:16:04;97849.78;;;12.43
79756;BMP280;69239;50.678;12.280;2023-05-07T00:18:30;97842.19;;;12.41
79756;BMP280;69239;50.678;12.280;2023-05-07T00:20:55;97845.91;;;12.40
79756;BMP280;69239;50.678;12.280;2023-05-07T00:23:21;97849.78;;;12.43
79756;BMP280;69239;50.678;12.280;2023-05-07T00:25:47;97854.59;;;12.41
79756;BMP280;69239;50.678;12.280;2023-05-07T00:28:12;97860.00;;;12.44
79756;BMP280;69239;50.678;12.280;2023-05-07T00:30:37;97851.97;;;12.41
79756;BMP280;69239;50.678;12.280;2023-05-07T00:33:03;97847.78;;;12.40
79756;BMP280;69239;50.678;12.280;2023-05-07T00:35:28;97856.59;;;12.44
79756;BMP280;69239;50.678;12.280;2023-05-07T00:37:54;97848.06;;;12.38
79756;BMP280;69239;50.678;12.280;2023-05-07T00:40:20;97864.72;;;12.39
79756;BMP280;69239;50.678;12.280;2023-05-07T00:42:45;97861.25;;;12.38
79756;BMP280;69239;50.678;12.280;2023-05-07T00:45:13;97863.13;;;12.38
79756;BMP280;69239;50.678;12.280;2023-05-07T00:47:39;97861.56;;;12.37
79756;BMP280;69239;50.678;12.280;2023-05-07T00:50:05;97852.25;;;12.31
79756;BMP280;69239;50.678;12.280;2023-05-07T00:52:30;97858.03;;;12.33
79756;BMP280;69239;50.678;12.280;2023-05-07T00:54:56;97856.47;;;12.32
79756;BMP280;69239;50.678;12.280;2023-05-07T00:57:23;97851.34;;;12.27
79756;BMP280;69239;50.678;12.280;2023-05-07T00:59:51;97848.25;;;12.25
79756;BMP280;69239;50.678;12.280;2023-05-07T01:02:16;97852.72;;;12.24
79756;BMP280;69239;50.678;12.280;2023-05-07T01:04:42;97851.50;;;12.21
79756;BMP280;69239;50.678;12.280;2023-05-07T01:07:07;97856.44;;;12.23
79756;BMP280;69239;50.678;12.280;2023-05-07T01:09:34;97850.56;;;12.17
79756;BMP280;69239;50.678;12.280;2023-05-07T01:12:00;97853.38;;;12.21
79756;BMP280;69239;50.678;12.280;2023-05-07T01:14:26;97854.78;;;12.18
79756;BMP280;69239;50.678;12.280;2023-05-07T01:16:52;97851.63;;;12.16
79756;BMP280;69239;50.678;12.280;2023-05-07T01:19:18;97845.59;;;12.16
79756;BMP280;69239;50.678;12.280;2023-05-07T01:21:48;97841.72;;;12.13
79756;BMP280;69239;50.678;12.280;2023-05-07T01:24:14;97851.31;;;12.09
79756;BMP280;69239;50.678;12.280;2023-05-07T01:26:40;97845.13;;;12.05
79756;BMP280;69239;50.678;12.280;2023-05-07T01:29:05;97854.28;;;12.08
79756;BMP280;69239;50.678;12.280;2023-05-07T01:31:32;97853.53;;;12.07
79756;BMP280;69239;50.678;12.280;2023-05-07T01:34:00;97859.25;;;12.09
79756;BMP280;69239;50.678;12.280;2023-05-07T01:36:27;97854.28;;;12.08
79756;BMP280;69239;50.678;12.280;2023-05-07T01:38:54;97855.03;;;12.08
79756;BMP280;69239;50.678;12.280;2023-05-07T01:41:19;97853.53;;;12.07
79756;BMP280;69239;50.678;12.280;2023-05-07T01:43:46;97855.03;;;12.08
79756;BMP280;69239;50.678;12.280;2023-05-07T01:46:12;97856.59;;;12.09
79756;BMP280;69239;50.678;12.280;2023-05-07T01:48:39;97852.28;;;12.05
79756;BMP280;69239;50.678;12.280;2023-05-07T01:51:05;97858.34;;;12.05
79756;BMP280;69239;50.678;12.280;2023-05-07T01:53:38;97857.06;;;12.03
79756;BMP280;69239;50.678;12.280;2023-05-07T01:56:05;97869.34;;;12.07
79756;BMP280;69239;50.678;12.280;2023-05-07T01:58:30;97863.91;;;12.04
79756;BMP280;69239;50.678;12.280;2023-05-07T02:00:56;97866.56;;;12.04
79756;BMP280;69239;50.678;12.280;2023-05-07T02:03:21;97865.47;;;12.05
79756;BMP280;69239;50.678;12.280;2023-05-07T02:05:46;97864.69;;;12.04
79756;BMP280;69239;50.678;12.280;2023-05-07T02:08:12;97869.97;;;12.04
79756;BMP280;69239;50.678;12.280;2023-05-07T02:10:37;97869.03;;;12.00
79756;BMP280;69239;50.678;12.280;2023-05-07T02:13:02;97870.56;;;12.01
79756;BMP280;69239;50.678;12.280;2023-05-07T02:15:28;97872.13;;;12.02
79756;BMP280;69239;50.678;12.280;2023-05-07T02:18:04;97864.84;;;11.99
79756;BMP280;69239;50.678;12.280;2023-05-07T02:20:30;97872.00;;;11.99
79756;BMP280;69239;50.678;12.280;2023-05-07T02:22:55;97871.78;;;11.95
79756;BMP280;69239;50.678;12.280;2023-05-07T02:25:20;97876.63;;;11.93
79756;BMP280;69239;50.678;12.280;2023-05-07T02:27:46;97887.63;;;11.95
79756;BMP280;69239;50.678;12.280;2023-05-07T02:30:11;97885.28;;;11.94
79756;BMP280;69239;50.678;12.280;2023-05-07T02:32:37;97879.88;;;11.90
79756;BMP280;69239;50.678;12.280;2023-05-07T02:35:02;97887.81;;;11.90
79756;BMP280;69239;50.678;12.280;2023-05-07T02:37:27;97884.97;;;11.86
79756;BMP280;69239;50.678;12.280;2023-05-07T02:39:53;97883.44;;;11.85
79756;BMP280;69239;50.678;12.280;2023-05-07T02:42:18;97881.59;;;11.86
79756;BMP280;69239;50.678;12.280;2023-05-07T02:44:43;97874.88;;;11.80
79756;BMP280;69239;50.678;12.280;2023-05-07T02:47:09;97866.53;;;11.78
79756;BMP280;69239;50.678;12.280;2023-05-07T02:49:35;97878.16;;;11.77
79756;BMP280;69239;50.678;12.280;2023-05-07T02:52:00;97871.59;;;11.74
79756;BMP280;69239;50.678;12.280;2023-05-07T02:54:26;97868.38;;;11.69
79756;BMP280;69239;50.678;12.280;2023-05-07T02:56:51;97872.06;;;11.68
79756;BMP280;69239;50.678;12.280;2023-05-07T02:59:16;97875.78;;;11.67
79756;BMP280;69239;50.678;12.280;2023-05-07T03:01:42;97856.22;;;11.59
79756;BMP280;69239;50.678;12.280;2023-05-07T03:04:09;97846.59;;;11.54
79756;BMP280;69239;50.678;12.280;2023-05-07T03:06:36;97870.66;;;11.62
79756;BMP280;69239;50.678;12.280;2023-05-07T03:09:01;97855.44;;;11.58
79756;BMP280;69239;50.678;12.280;2023-05-07T03:11:27;97857.59;;;11.56
79756;BMP280;69239;50.678;12.280;2023-05-07T03:13:52;97863.47;;;11.53
79756;BMP280;69239;50.678;12.280;2023-05-07T03:16:17;97864.09;;;11.50
79756;BMP280;69239;50.678;12.280;2023-05-07T03:18:43;97862.09;;;11.47
79756;BMP280;69239;50.678;12.280;2023-05-07T03:21:08;97862.97;;;11.43
79756;BMP280;69239;50.678;12.280;2023-05-07T03:23:33;97862.34;;;11.37
79756;BMP280;69239;50.678;12.280;2023-05-07T03:25:59;97867.16;;;11.35
79756;BMP280;69239;50.678;12.280;2023-05-07T03:28:24;97867.47;;;11.34
79756;BMP280;69239;50.678;12.280;2023-05-07T03:30:49;97867.28;;;11.30
79756;BMP280;69239;50.678;12.280;2023-05-07T03:33:15;97869.56;;;11.23
79756;BMP280;69239;50.678;12.280;2023-05-07T03:35:41;97861.66;;;11.23
79756;BMP280;69239;50.678;12.280;2023-05-07T03:38:07;97871.44;;;11.22
79756;BMP280;69239;50.678;12.280;2023-05-07T03:40:32;97868.31;;;11.20
79756;BMP280;69239;50.678;12.280;2023-05-07T03:42:57;97872.81;;;11.20
79756;BMP280;69239;50.678;12.280;2023-05-07T03:45:24;97874.69;;;11.19
79756;BMP280;69239;50.678;12.280;2023-05-07T03:47:49;97872.34;;;11.18
79756;BMP280;69239;50.678;12.280;2023-05-07T03:50:15;97864.44;;;11.18
79756;BMP280;69239;50.678;12.280;2023-05-07T03:52:40;97873.59;;;11.20
79756;BMP280;69239;50.678;12.280;2023-05-07T03:55:06;97883.84;;;11.22
79756;BMP280;69239;50.678;12.280;2023-05-07T03:57:32;97873.59;;;11.20
79756;BMP280;69239;50.678;12.280;2023-05-07T03:59:57;97874.06;;;11.22
79756;BMP280;69239;50.678;12.280;2023-05-07T04:02:23;97867.53;;;11.20
79756;BMP280;69239;50.678;12.280;2023-05-07T04:04:49;97872.50;;;11.21
79756;BMP280;69239;50.678;12.280;2023-05-07T04:07:14;97872.34;;;11.18
79756;BMP280;69239;50.678;12.280;2023-05-07T04:09:40;97868.16;;;11.17
79756;BMP280;69239;50.678;12.280;2023-05-07T04:12:05;97873.59;;;11.20
79756;BMP280;69239;50.678;12.280;2023-05-07T04:14:31;97879.94;;;11.19
79756;BMP280;69239;50.678;12.280;2023-05-07T04:17:00;97883.34;;;11.20
79756;BMP280;69239;50.678;12.280;2023-05-07T04:19:26;97891.75;;;11.22
79756;BMP280;69239;50.678;12.280;2023-05-07T04:21:51;97890.19;;;11.21
79756;BMP280;69239;50.678;12.280;2023-05-07T04:24:16;97899.16;;;11.20
79756;BMP280;69239;50.678;12.280;2023-05-07T04:26:42;97890.00;;;11.17
79756;BMP280;69239;50.678;12.280;2023-05-07T04:29:07;97883.34;;;11.20
79756;BMP280;69239;50.678;12.280;2023-05-07T04:31:32;97897.34;;;11.29
79756;BMP280;69239;50.678;12.280;2023-05-07T04:33:58;97895.19;;;11.31
79756;BMP280;69239;50.678;12.280;2023-05-07T04:36:23;97887.78;;;11.33
79756;BMP280;69239;50.678;12.280;2023-05-07T04:38:52;97895.53;;;11.38
79756;BMP280;69239;50.678;12.280;2023-05-07T04:41:18;97883.44;;;11.37
79756;BMP280;69239;50.678;12.280;2023-05-07T04:43:43;97886.53;;;11.39
79756;BMP280;69239;50.678;12.280;2023-05-07T04:46:08;97891.19;;;11.42
79756;BMP280;69239;50.678;12.280;2023-05-07T04:48:34;97886.53;;;11.39
79756;BMP280;69239;50.678;12.280;2023-05-07T04:50:59;97890.75;;;11.40
79756;BMP280;69239;50.678;12.280;2023-05-07T04:53:25;97889.94;;;11.40
79756;BMP280;69239;50.678;12.280;2023-05-07T04:55:57;97898.03;;;11.43
79756;BMP280;69239;50.678;12.280;2023-05-07T04:58:23;97902.53;;;11.43
79756;BMP280;69239;50.678;12.280;2023-05-07T05:00:49;97911.22;;;11.43
79756;BMP280;69239;50.678;12.280;2023-05-07T05:03:14;97913.84;;;11.43
79756;BMP280;69239;50.678;12.280;2023-05-07T05:05:40;97909.06;;;11.45
79756;BMP280;69239;50.678;12.280;2023-05-07T05:08:05;97910.91;;;11.45
79756;BMP280;69239;50.678;12.280;2023-05-07T05:10:31;97917.25;;;11.44
79756;BMP280;69239;50.678;12.280;2023-05-07T05:12:56;97919.13;;;11.43
79756;BMP280;69239;50.678;12.280;2023-05-07T05:15:21;97924.41;;;11.43
79756;BMP280;69239;50.678;12.280;2023-05-07T05:17:47;97927.03;;;11.43
79756;BMP280;69239;50.678;12.280;2023-05-07T05:20:12;97922.22;;;11.45
79756;BMP280;69239;50.678;12.280;2023-05-07T05:22:38;97930.66;;;11.47
79756;BMP280;69239;50.678;12.280;2023-05-07T05:25:04;97932.00;;;11.45
79756;BMP280;69239;50.678;12.280;2023-05-07T05:27:29;97926.56;;;11.41
79756;BMP280;69239;50.678;12.280;2023-05-07T05:29:55;97932.19;;;11.48
79756;BMP280;69239;50.678;12.280;2023-05-07T05:32:20;97941.03;;;11.52
79756;BMP280;69239;50.678;12.280;2023-05-07T05:34:46;97942.75;;;11.57
79756;BMP280;69239;50.678;12.280;2023-05-07T05:37:11;97940.91;;;11.57
79756;BMP280;69239;50.678;12.280;2023-05-07T05:39:36;97940.28;;;11.61
79756;BMP280;69239;50.678;12.280;2023-05-07T05:42:02;97944.94;;;11.64
79756;BMP280;69239;50.678;12.280;2023-05-07T05:44:27;97947.50;;;11.69
79756;BMP280;69239;50.678;12.280;2023-05-07T05:46:53;97951.50;;;11.75
79756;BMP280;69239;50.678;12.280;2023-05-07T05:49:20;97956.06;;;11.83
79756;BMP280;69239;50.678;12.280;2023-05-07T05:51:46;97948.63;;;11.85
79756;BMP280;69239;50.678;12.280;2023-05-07T05:54:11;97947.88;;;11.93
79756;BMP280;69239;50.678;12.280;2023-05-07T05:56:37;97945.09;;;11.98
79756;BMP280;69239;50.678;12.280;2023-05-07T05:59:02;97944.00;;;12.08
79756;BMP280;69239;50.678;12.280;2023-05-07T06:01:28;97949.59;;;12.15
79756;BMP280;69239;50.678;12.280;2023-05-07T06:03:53;97947.63;;;12.20
79756;BMP280;69239;50.678;12.280;2023-05-07T06:06:18;97956.31;;;12.30
79756;BMP280;69239;50.678;12.280;2023-05-07T06:08:44;97943.00;;;12.35
79756;BMP280;69239;50.678;12.280;2023-05-07T06:11:09;97952.78;;;12.43
79756;BMP280;69239;50.678;12.280;2023-05-07T06:13:35;97950.44;;;12.50
79756;BMP280;69239;50.678;12.280;2023-05-07T06:16:00;97956.81;;;12.57
79756;BMP280;69239;50.678;12.280;2023-05-07T06:18:26;97951.38;;;12.54
79756;BMP280;69239;50.678;12.280;2023-05-07T06:20:52;97951.84;;;12.56
79756;BMP280;69239;50.678;12.280;2023-05-07T06:23:17;97944.88;;;12.60
79756;BMP280;69239;50.678;12.280;2023-05-07T06:25:49;97948.28;;;12.69
79756;BMP280;69239;50.678;12.280;2023-05-07T06:28:15;97950.16;;;12.77
79756;BMP280;69239;50.678;12.280;2023-05-07T06:30:40;97949.50;;;12.80
79756;BMP280;69239;50.678;12.280;2023-05-07T06:33:05;97940.97;;;12.83
79756;BMP280;69239;50.678;12.280;2023-05-07T06:35:31;97945.44;;;12.92
79756;BMP280;69239;50.678;12.280;2023-05-07T06:37:56;97952.91;;;12.98
79756;BMP280;69239;50.678;12.280;2023-05-07T06:40:21;97954.16;;;13.09
79756;BMP280;69239;50.678;12.280;2023-05-07T06:42:47;97962.97;;;13.22
79756;BMP280;69239;50.678;12.280;2023-05-07T06:45:12;97950.94;;;13.33
79756;BMP280;69239;50.678;12.280;2023-05-07T06:47:38;97962.28;;;13.42
79756;BMP280;69239;50.678;12.280;2023-05-07T06:50:03;97967.69;;;13.54
79756;BMP280;69239;50.678;12.280;2023-05-07T06:52:28;97967.81;;;13.67
79756;BMP280;69239;50.678;12.280;2023-05-07T06:54:54;97963.88;;;13.73
79756;BMP280;69239;50.678;12.280;2023-05-07T06:57:19;97971.91;;;13.85
79756;BMP280;69239;50.678;12.280;2023-05-07T06:59:44;97964.56;;;13.91
79756;BMP280;69239;50.678;12.280;2023-05-07T07:02:10;97967.94;;;14.00
79756;BMP280;69239;50.678;12.280;2023-05-07T07:04:35;97967.25;;;14.11
79756;BMP280;69239;50.678;12.280;2023-05-07T07:07:00;97970.03;;;14.15
79756;BMP280;69239;50.678;12.280;2023-05-07T07:09:26;97965.00;;;14.22
79756;BMP280;69239;50.678;12.280;2023-05-07T07:11:51;97966.81;;;14.30
79756;BMP280;69239;50.678;12.280;2023-05-07T07:14:16;97965.38;;;14.33
79756;BMP280;69239;50.678;12.280;2023-05-07T07:16:42;97973.66;;;14.31
79756;BMP280;69239;50.678;12.280;2023-05-07T07:19:07;97974.50;;;14.23
79756;BMP280;69239;50.678;12.280;2023-05-07T07:21:33;97984.78;;;14.25
79756;BMP280;69239;50.678;12.280;2023-05-07T07:23:58;97979.72;;;14.32
79756;BMP280;69239;50.678;12.280;2023-05-07T07:26:23;97980.66;;;14.36
79756;BMP280;69239;50.678;12.280;2023-05-07T07:28:49;97988.09;;;14.42
79756;BMP280;69239;50.678;12.280;2023-05-07T07:31:14;97985.81;;;14.53
79756;BMP280;69239;50.678;12.280;2023-05-07T07:33:40;97989.94;;;14.63
79756;BMP280;69239;50.678;12.280;2023-05-07T07:36:06;97989.41;;;14.69
79756;BMP280;69239;50.678;12.280;2023-05-07T07:38:31;97987.66;;;14.73
79756;BMP280;69239;50.678;12.280;2023-05-07T07:40:57;97978.28;;;14.76
79756;BMP280;69239;50.678;12.280;2023-05-07T07:43:22;97980.34;;;14.70
79756;BMP280;69239;50.678;12.280;2023-05-07T07:45:47;97990.50;;;14.68
79756;BMP280;69239;50.678;12.280;2023-05-07T07:48:13;97988.53;;;14.65
79756;BMP280;69239;50.678;12.280;2023-05-07T07:50:38;97987.94;;;14.60
79756;BMP280;69239;50.678;12.280;2023-05-07T07:53:04;97996.41;;;14.53
79756;BMP280;69239;50.678;12.280;2023-05-07T07:55:29;97981.72;;;14.35
79756;BMP280;69239;50.678;12.280;2023-05-07T07:57:56;97990.78;;;14.34
79756;BMP280;69239;50.678;12.280;2023-05-07T08:00:21;97989.69;;;14.35
79756;BMP280;69239;50.678;12.280;2023-05-07T08:02:47;97982.63;;;14.39
79756;BMP280;69239;50.678;12.280;2023-05-07T08:05:12;97989.81;;;14.38
79756;BMP280;69239;50.678;12.280;2023-05-07T08:07:37;97990.47;;;14.35
79756;BMP280;69239;50.678;12.280;2023-05-07T08:10:03;97997.88;;;14.42
79756;BMP280;69239;50.678;12.280;2023-05-07T08:12:29;97993.19;;;14.47
79756;BMP280;69239;50.678;12.280;2023-05-07T08:14:54;98001.03;;;14.56
79756;BMP280;69239;50.678;12.280;2023-05-07T08:17:20;98001.44;;;14.67
79756;BMP280;69239;50.678;12.280;2023-05-07T08:19:47;97995.63;;;14.73
79756;BMP280;69239;50.678;12.280;2023-05-07T08:22:13;97994.66;;;14.78
79756;BMP280;69239;50.678;12.280;2023-05-07T08:24:39;97992.44;;;14.80
79756;BMP280;69239;50.678;12.280;2023-05-07T08:27:04;97985.53;;;14.87
79756;BMP280;69239;50.678;12.280;2023-05-07T08:29:29;97988.22;;;15.00
79756;BMP280;69239;50.678;12.280;2023-05-07T08:31:55;97997.09;;;15.16
79756;BMP280;69239;50.678;12.280;2023-05-07T08:34:21;97996.44;;;15.31
79756;BMP280;69239;50.678;12.280;2023-05-07T08:36:47;98001.38;;;15.41
79756;BMP280;69239;50.678;12.280;2023-05-07T08:39:14;97994.94;;;15.42
79756;BMP280;69239;50.678;12.280;2023-05-07T08:41:42;98004.34;;;15.52
79756;BMP280;69239;50.678;12.280;2023-05-07T08:44:12;97998.63;;;15.62
79756;BMP280;69239;50.678;12.280;2023-05-07T08:46:37;97995.41;;;15.69
79756;BMP280;69239;50.678;12.280;2023-05-07T08:49:03;97990.50;;;15.95
79756;BMP280;69239;50.678;12.280;2023-05-07T08:51:28;97988.25;;;16.34
79756;BMP280;69239;50.678;12.280;2023-05-07T08:53:54;98000.97;;;16.68
79756;BMP280;69239;50.678;12.280;2023-05-07T08:56:19;97995.59;;;16.80
79756;BMP280;69239;50.678;12.280;2023-05-07T08:58:45;98004.81;;;17.14
79756;BMP280;69239;50.678;12.280;2023-05-07T09:01:15;97994.94;;;17.62
79756;BMP280;69239;50.678;12.280;2023-05-07T09:03:44;98014.91;;;18.03
79756;BMP280;69239;50.678;12.280;2023-05-07T09:06:10;98009.84;;;17.98
79756;BMP280;69239;50.678;12.280;2023-05-07T09:08:36;98016.06;;;17.86
79756;BMP280;69239;50.678;12.280;2023-05-07T09:11:02;98010.91;;;17.93
79756;BMP280;69239;50.678;12.280;2023-05-07T09:13:28;98016.59;;;18.11
79756;BMP280;69239;50.678;12.280;2023-05-07T09:15:54;98014.22;;;18.25
79756;BMP280;69239;50.678;12.280;2023-05-07T09:18:19;98012.47;;;18.33
79756;BMP280;69239;50.678;12.280;2023-05-07T09:20:45;98014.59;;;18.43
79756;BMP280;69239;50.678;12.280;2023-05-07T09:23:10;98013.34;;;18.37
79756;BMP280;69239;50.678;12.280;2023-05-07T09:25:36;98008.47;;;18.23
79756;BMP280;69239;50.678;12.280;2023-05-07T09:28:03;98017.72;;;18.29
79756;BMP280;69239;50.678;12.280;2023-05-07T09:30:32;98012.19;;;18.19
79756;BMP280;69239;50.678;12.280;2023-05-07T09:32:59;98020.66;;;18.05
79756;BMP280;69239;50.678;12.280;2023-05-07T09:35:25;98019.50;;;18.06
79756;BMP280;69239;50.678;12.280;2023-05-07T09:37:58;98016.06;;;18.21
79756;BMP280;69239;50.678;12.280;2023-05-07T09:40:25;98013.84;;;18.43
79756;BMP280;69239;50.678;12.280;2023-05-07T09:42:51;98021.44;;;18.63
79756;BMP280;69239;50.678;12.280;2023-05-07T09:45:27;98017.22;;;18.82
79756;BMP280;69239;50.678;12.280;2023-05-07T09:47:57;98016.66;;;18.92
79756;BMP280;69239;50.678;12.280;2023-05-07T09:50:28;98008.31;;;18.93
79756;BMP280;69239;50.678;12.280;2023-05-07T09:52:54;98010.84;;;19.09
79756;BMP280;69239;50.678;12.280;2023-05-07T09:55:21;98019.56;;;19.29
79756;BMP280;69239;50.678;12.280;2023-05-07T09:57:52;98012.78;;;19.35
79756;BMP280;69239;50.678;12.280;2023-05-07T10:00:21;98020.13;;;19.19
79756;BMP280;69239;50.678;12.280;2023-05-07T10:02:51;98018.88;;;18.90
79756;BMP280;69239;50.678;12.280;2023-05-07T10:05:21;98024.59;;;18.69
79756;BMP280;69239;50.678;12.280;2023-05-07T10:07:47;98022.78;;;18.54
79756;BMP280;69239;50.678;12.280;2023-05-07T10:10:14;98016.50;;;18.43
79756;BMP280;69239;50.678;12.280;2023-05-07T10:12:41;98017.44;;;18.54
79756;BMP280;69239;50.678;12.280;2023-05-07T10:15:07;98023.00;;;18.64
79756;BMP280;69239;50.678;12.280;2023-05-07T10:17:38;98019.75;;;18.55
79756;BMP280;69239;50.678;12.280;2023-05-07T10:20:05;98013.66;;;18.55
79756;BMP280;69239;50.678;12.280;2023-05-07T10:22:43;98014.56;;;18.62
79756;BMP280;69239;50.678;12.280;2023-05-07T10:25:14;98009.59;;;18.61
79756;BMP280;69239;50.678;12.280;2023-05-07T10:27:43;98012.63;;;18.59
79756;BMP280;69239;50.678;12.280;2023-05-07T10:30:22;98015.91;;;18.72
79756;BMP280;69239;50.678;12.280;2023-05-07T10:32:52;98015.44;;;18.66
79756;BMP280;69239;50.678;12.280;2023-05-07T10:35:24;98012.13;;;18.54
79756;BMP280;69239;50.678;12.280;2023-05-07T10:37:50;98007.63;;;18.58
79756;BMP280;69239;50.678;12.280;2023-05-07T10:40:17;98011.06;;;18.78
79756;BMP280;69239;50.678;12.280;2023-05-07T10:43:01;98007.56;;;18.96
79756;BMP280;69239;50.678;12.280;2023-05-07T10:45:28;98017.09;;;19.17
79756;BMP280;69239;50.678;12.280;2023-05-07T10:48:13;98015.53;;;19.16
79756;BMP280;69239;50.678;12.280;2023-05-07T10:50:43;98016.94;;;19.32
79756;BMP280;69239;50.678;12.280;2023-05-07T10:55:44;98003.75;;;19.96
79756;BMP280;69239;50.678;12.280;2023-05-07T11:00:49;98007.41;;;20.14
79756;BMP280;69239;50.678;12.280;2023-05-07T11:03:15;97998.97;;;20.42
79756;BMP280;69239;50.678;12.280;2023-05-07T11:05:41;98012.16;;;20.65
79756;BMP280;69239;50.678;12.280;2023-05-07T11:08:07;97994.84;;;20.51
79756;BMP280;69239;50.678;12.280;2023-05-07T11:10:56;97995.88;;;20.43
79756;BMP280;69239;50.678;12.280;2023-05-07T11:13:44;97993.50;;;20.68
79756;BMP280;69239;50.678;12.280;2023-05-07T11:18:56;97999.19;;;20.67
79756;BMP280;69239;50.678;12.280;2023-05-07T11:21:37;98005.06;;;20.42
79756;BMP280;69239;50.678;12.280;2023-05-07T11:24:04;98007.28;;;20.33
79756;BMP280;69239;50.678;12.280;2023-05-07T11:26:41;98002.94;;;20.22
79756;BMP280;69239;50.678;12.280;2023-05-07T11:29:11;98011.50;;;20.34
79756;BMP280;69239;50.678;12.280;2023-05-07T11:31:36;97996.66;;;20.40
79756;BMP280;69239;50.678;12.280;2023-05-07T11:34:02;97996.81;;;20.55
79756;BMP280;69239;50.678;12.280;2023-05-07T11:36:31;97998.53;;;20.77
79756;BMP280;69239;50.678;12.280;2023-05-07T11:38:57;98000.25;;;20.96
79756;BMP280;69239;50.678;12.280;2023-05-07T11:41:22;98001.91;;;21.14
79756;BMP280;69239;50.678;12.280;2023-05-07T11:43:55;98000.53;;;21.35
79756;BMP280;69239;50.678;12.280;2023-05-07T11:46:21;98002.94;;;21.50
79756;BMP280;69239;50.678;12.280;2023-05-07T11:48:47;98009.16;;;21.61
79756;BMP280;69239;50.678;12.280;2023-05-07T11:51:12;98004.97;;;21.68
79756;BMP280;69239;50.678;12.280;2023-05-07T11:53:42;98000.03;;;21.77
79756;BMP280;69239;50.678;12.280;2023-05-07T11:56:12;98001.97;;;21.83
79756;BMP280;69239;50.678;12.280;2023-05-07T11:58:37;98008.53;;;21.89
79756;BMP280;69239;50.678;12.280;2023-05-07T12:01:03;98010.44;;;21.92
79756;BMP280;69239;50.678;12.280;2023-05-07T12:03:29;98003.91;;;21.86
79756;BMP280;69239;50.678;12.280;2023-05-07T12:05:54;98008.16;;;21.94
79756;BMP280;69239;50.678;12.280;2023-05-07T12:08:21;97996.72;;;22.05
79756;BMP280;69239;50.678;12.280;2023-05-07T12:10:49;97996.28;;;21.95
79756;BMP280;69239;50.678;12.280;2023-05-07T12:13:20;98006.97;;;21.85
79756;BMP280;69239;50.678;12.280;2023-05-07T12:15:46;98006.97;;;21.85
79756;BMP280;69239;50.678;12.280;2023-05-07T12:18:12;98003.91;;;21.86
79756;BMP280;69239;50.678;12.280;2023-05-07T12:20:38;98005.44;;;21.87
79756;BMP280;69239;50.678;12.280;2023-05-07T12:23:04;98013.06;;;21.78
79756;BMP280;69239;50.678;12.280;2023-05-07T12:25:39;98012.31;;;21.81
79756;BMP280;69239;50.678;12.280;2023-05-07T12:28:07;98010.81;;;21.87
79756;BMP280;69239;50.678;12.280;2023-05-07T12:30:37;97998.94;;;21.88
79756;BMP280;69239;50.678;12.280;2023-05-07T12:33:02;98005.06;;;21.92
79756;BMP280;69239;50.678;12.280;2023-05-07T12:35:29;98007.81;;;22.03
79756;BMP280;69239;50.678;12.280;2023-05-07T12:37:59;98012.03;;;22.00
79756;BMP280;69239;50.678;12.280;2023-05-07T12:40:37;98000.94;;;22.02
79756;BMP280;69239;50.678;12.280;2023-05-07T12:43:02;98000.94;;;22.06
79756;BMP280;69239;50.678;12.280;2023-05-07T12:45:28;98008.22;;;22.12
79756;BMP280;69239;50.678;12.280;2023-05-07T12:47:53;98006.72;;;22.15
79756;BMP280;69239;50.678;12.280;2023-05-07T12:50:19;98010.94;;;22.16
79756;BMP280;69239;50.678;12.280;2023-05-07T12:52:47;98010.97;;;22.23
79756;BMP280;69239;50.678;12.280;2023-05-07T12:55:16;98008.28;;;22.23
79756;BMP280;69239;50.678;12.280;2023-05-07T12:57:45;98002.53;;;22.28
79756;BMP280;69239;50.678;12.280;2023-05-07T13:00:13;98008.69;;;22.32
79756;BMP280;69239;50.678;12.280;2023-05-07T13:02:41;98010.59;;;22.31
79756;BMP280;69239;50.678;12.280;2023-05-07T13:05:07;98013.28;;;22.35
79756;BMP280;69239;50.678;12.280;2023-05-07T13:07:32;98009.09;;;22.48
79756;BMP280;69239;50.678;12.280;2023-05-07T13:09:58;97991.88;;;22.56
79756;BMP280;69239;50.678;12.280;2023-05-07T13:12:23;97984.97;;;22.62
79756;BMP280;69239;50.678;12.280;2023-05-07T13:14:48;97983.06;;;22.66
79756;BMP280;69239;50.678;12.280;2023-05-07T13:17:14;97983.84;;;22.74
79756;BMP280;69239;50.678;12.280;2023-05-07T13:19:39;97991.53;;;22.86
79756;BMP280;69239;50.678;12.280;2023-05-07T13:22:05;97996.53;;;23.05
79756;BMP280;69239;50.678;12.280;2023-05-07T13:24:30;98001.88;;;23.20
79756;BMP280;69239;50.678;12.280;2023-05-07T13:26:56;97994.94;;;23.29
79756;BMP280;69239;50.678;12.280;2023-05-07T13:29:21;97999.50;;;23.50
79756;BMP280;69239;50.678;12.280;2023-05-07T13:31:54;98001.72;;;23.76
79756;BMP280;69239;50.678;12.280;2023-05-07T13:34:19;98007.00;;;23.98
79756;BMP280;69239;50.678;12.280;2023-05-07T13:36:44;97996.59;;;24.07
79756;BMP280;69239;50.678;12.280;2023-05-07T13:39:10;97998.41;;;24.24
79756;BMP280;69239;50.678;12.280;2023-05-07T13:41:35;97994.50;;;24.39
79756;BMP280;69239;50.678;12.280;2023-05-07T13:44:00;97992.16;;;24.41
79756;BMP280;69239;50.678;12.280;2023-05-07T13:46:26;98001.00;;;24.42
79756;BMP280;69239;50.678;12.280;2023-05-07T13:48:51;97995.28;;;24.40
79756;BMP280;69239;50.678;12.280;2023-05-07T13:51:17;97988.50;;;24.10
79756;BMP280;69239;50.678;12.280;2023-05-07T13:53:43;97986.31;;;23.84
79756;BMP280;69239;50.678;12.280;2023-05-07T13:56:08;97991.38;;;23.68
79756;BMP280;69239;50.678;12.280;2023-05-07T13:58:34;97994.84;;;23.65
79756;BMP280;69239;50.678;12.280;2023-05-07T14:01:01;97992.56;;;23.60